createdAt,value
2017-05-09T00:00:00.032Z,6.66
2017-05-09T00:01:44.858Z,6.60
2017-05-09T00:02:45.468Z,6.61
2017-05-09T00:03:46.079Z,6.64
2017-05-09T00:04:46.669Z,6.58
2017-05-09T00:05:47.265Z,6.57
2017-05-09T00:06:47.922Z,6.58
2017-05-09T00:07:48.527Z,6.53
2017-05-09T00:08:49.136Z,6.52
2017-05-09T00:09:49.732Z,6.48
2017-05-09T00:10:50.346Z,6.60
2017-05-09T00:11:50.951Z,6.52
2017-05-09T00:12:51.558Z,6.46
2017-05-09T00:13:52.146Z,6.43
2017-05-09T00:14:52.753Z,6.46
2017-05-09T00:15:53.356Z,6.48
2017-05-09T00:16:53.963Z,6.49
2017-05-09T00:17:54.617Z,6.43
2017-05-09T00:18:55.163Z,6.34
2017-05-09T00:19:55.768Z,6.40
2017-05-09T00:20:56.373Z,6.40
2017-05-09T00:21:56.966Z,6.40
2017-05-09T00:22:57.564Z,6.34
2017-05-09T00:23:58.172Z,6.28
2017-05-09T00:24:58.778Z,6.32
2017-05-09T00:25:59.380Z,6.27
2017-05-09T00:26:59.985Z,6.35
2017-05-09T00:28:00.578Z,6.24
2017-05-09T00:29:01.168Z,6.30
2017-05-09T00:30:01.765Z,6.30
2017-05-09T00:31:02.364Z,6.27
2017-05-09T00:32:02.960Z,6.13
2017-05-09T00:33:03.559Z,6.11
2017-05-09T00:34:04.164Z,6.09
2017-05-09T00:35:04.758Z,6.12
2017-05-09T00:36:05.367Z,6.12
2017-05-09T00:37:05.975Z,6.08
2017-05-09T00:38:06.578Z,6.09
2017-05-09T00:39:07.172Z,6.08
2017-05-09T00:40:07.778Z,6.02
2017-05-09T00:41:08.370Z,5.99
2017-05-09T00:42:08.962Z,5.96
2017-05-09T00:43:09.568Z,5.94
2017-05-09T00:44:10.161Z,5.93
2017-05-09T00:45:10.769Z,5.90
2017-05-09T00:46:11.364Z,5.84
2017-05-09T00:47:11.961Z,5.88
2017-05-09T00:48:12.566Z,5.88
2017-05-09T00:49:13.172Z,5.87
2017-05-09T00:50:13.773Z,5.87
2017-05-09T00:51:14.370Z,5.93
2017-05-09T00:52:14.969Z,5.90
2017-05-09T00:53:15.576Z,5.87
2017-05-09T00:54:16.169Z,5.84
2017-05-09T00:55:16.767Z,5.81
2017-05-09T00:56:17.374Z,5.81
2017-05-09T00:57:17.985Z,5.81
2017-05-09T00:58:18.593Z,5.81
2017-05-09T00:59:19.198Z,5.78
2017-05-09T01:00:19.789Z,5.78
2017-05-09T01:01:20.381Z,5.69
2017-05-09T01:02:20.987Z,5.70
2017-05-09T01:03:21.593Z,5.72
2017-05-09T01:04:22.201Z,5.69
2017-05-09T01:05:22.807Z,5.65
2017-05-09T01:06:23.401Z,5.68
2017-05-09T01:07:24.042Z,5.69
2017-05-09T01:08:24.648Z,5.68
2017-05-09T01:09:25.251Z,5.69
2017-05-09T01:10:25.841Z,5.55
2017-05-09T01:11:26.443Z,5.58
2017-05-09T01:12:27.084Z,5.63
2017-05-09T01:13:27.688Z,5.60
2017-05-09T01:14:28.294Z,5.58
2017-05-09T01:15:28.904Z,5.66
2017-05-09T01:16:29.513Z,5.61
2017-05-09T01:17:30.169Z,5.65
2017-05-09T01:18:30.766Z,5.61
2017-05-09T01:19:31.356Z,5.65
2017-05-09T01:20:31.958Z,5.65
2017-05-09T01:21:32.551Z,5.65
2017-05-09T01:22:33.205Z,5.65
2017-05-09T01:23:33.798Z,5.55
2017-05-09T01:24:34.394Z,5.54
2017-05-09T01:25:34.983Z,5.69
2017-05-09T01:26:35.577Z,5.58
2017-05-09T01:27:36.170Z,5.51
2017-05-09T01:28:36.772Z,5.66
2017-05-09T01:29:37.364Z,5.63
2017-05-09T01:30:37.972Z,5.66
2017-05-09T01:31:38.566Z,5.63
2017-05-09T01:32:39.232Z,5.65
2017-05-09T01:33:39.830Z,5.55
2017-05-09T01:34:40.437Z,5.58
2017-05-09T01:35:41.039Z,5.68
2017-05-09T01:36:41.648Z,5.66
2017-05-09T01:37:42.247Z,5.65
2017-05-09T01:38:42.857Z,5.69
2017-05-09T01:39:43.466Z,5.66
2017-05-09T01:40:44.072Z,5.68
2017-05-09T01:41:44.678Z,5.68
2017-05-09T01:42:45.318Z,5.69
2017-05-09T01:43:45.913Z,5.69
2017-05-09T01:44:46.502Z,5.66
2017-05-09T01:45:47.097Z,5.69
2017-05-09T01:46:47.703Z,5.66
2017-05-09T01:47:48.310Z,5.65
2017-05-09T01:48:48.919Z,5.69
2017-05-09T01:49:49.521Z,5.69
2017-05-09T01:50:50.122Z,5.58
2017-05-09T01:51:50.718Z,5.68
2017-05-09T01:52:51.373Z,5.66
2017-05-09T01:53:51.983Z,5.66
2017-05-09T01:54:52.592Z,5.58
2017-05-09T01:55:53.194Z,5.60
2017-05-09T01:56:53.787Z,5.75
2017-05-09T01:57:54.380Z,5.65
2017-05-09T01:58:54.986Z,5.72
2017-05-09T01:59:55.587Z,5.65
2017-05-09T02:00:56.191Z,5.70
2017-05-09T02:01:56.795Z,5.66
2017-05-09T02:02:57.389Z,5.69
2017-05-09T02:03:57.997Z,5.69
2017-05-09T02:04:58.589Z,5.69
2017-05-09T02:05:59.192Z,5.70
2017-05-09T02:06:59.794Z,5.70
2017-05-09T02:08:00.399Z,5.70
2017-05-09T02:09:01.071Z,5.72
2017-05-09T02:10:01.596Z,5.69
2017-05-09T02:11:02.192Z,5.65
2017-05-09T02:12:02.800Z,5.70
2017-05-09T02:13:03.457Z,5.72
2017-05-09T02:14:04.062Z,5.72
2017-05-09T02:15:04.667Z,5.72
2017-05-09T02:16:05.256Z,5.70
2017-05-09T02:17:05.847Z,5.66
2017-05-09T02:18:06.454Z,5.72
2017-05-09T02:19:07.059Z,5.70
2017-05-09T02:20:07.650Z,5.68
2017-05-09T02:21:08.242Z,5.66
2017-05-09T02:22:08.836Z,5.70
2017-05-09T02:23:09.437Z,5.78
2017-05-09T02:24:10.042Z,5.79
2017-05-09T02:25:10.643Z,5.69
2017-05-09T02:26:11.238Z,5.69
2017-05-09T02:27:11.832Z,5.72
2017-05-09T02:28:12.422Z,5.70
2017-05-09T02:29:13.031Z,5.70
2017-05-09T02:30:13.642Z,5.69
2017-05-09T02:31:14.231Z,5.70
2017-05-09T02:32:14.833Z,5.72
2017-05-09T02:33:15.426Z,5.73
2017-05-09T02:34:16.031Z,5.68
2017-05-09T02:35:16.637Z,5.70
2017-05-09T02:36:17.229Z,5.63
2017-05-09T02:37:17.821Z,5.72
2017-05-09T02:38:18.429Z,5.65
2017-05-09T02:39:19.022Z,5.70
2017-05-09T02:40:19.620Z,5.66
2017-05-09T02:41:20.212Z,5.70
2017-05-09T02:42:20.808Z,5.75
2017-05-09T02:43:21.411Z,5.70
2017-05-09T02:44:22.018Z,5.66
2017-05-09T02:45:22.622Z,5.76
2017-05-09T02:46:23.216Z,5.76
2017-05-09T02:47:23.810Z,5.68
2017-05-09T02:48:24.419Z,5.68
2017-05-09T02:49:25.007Z,5.66
2017-05-09T02:50:25.610Z,5.61
2017-05-09T02:51:26.212Z,5.60
2017-05-09T02:52:26.802Z,5.61
2017-05-09T02:53:27.399Z,5.60
2017-05-09T02:54:28.007Z,5.61
2017-05-09T02:55:28.612Z,5.57
2017-05-09T02:56:29.204Z,5.50
2017-05-09T02:57:29.809Z,5.44
2017-05-09T02:58:30.412Z,5.54
2017-05-09T02:59:31.005Z,5.47
2017-05-09T03:00:31.614Z,5.42
2017-05-09T03:01:32.200Z,5.39
2017-05-09T03:02:32.789Z,5.32
2017-05-09T03:03:33.483Z,5.33
2017-05-09T03:04:34.082Z,5.34
2017-05-09T03:05:34.688Z,5.32
2017-05-09T03:06:35.297Z,5.29
2017-05-09T03:07:35.903Z,5.22
2017-05-09T03:08:36.496Z,5.26
2017-05-09T03:09:37.105Z,5.19
2017-05-09T03:10:37.704Z,5.18
2017-05-09T03:11:38.295Z,5.18
2017-05-09T03:12:38.903Z,5.16
2017-05-09T03:13:39.561Z,5.11
2017-05-09T03:14:40.157Z,5.11
2017-05-09T03:15:40.749Z,5.00
2017-05-09T03:16:41.342Z,5.07
2017-05-09T03:17:41.934Z,4.93
2017-05-09T03:18:42.584Z,4.94
2017-05-09T03:19:43.188Z,4.90
2017-05-09T03:20:43.795Z,4.96
2017-05-09T03:21:44.395Z,4.83
2017-05-09T03:22:45.007Z,4.75
2017-05-09T03:23:45.651Z,4.83
2017-05-09T03:24:46.258Z,4.85
2017-05-09T03:25:46.851Z,4.78
2017-05-09T03:26:47.456Z,4.74
2017-05-09T03:27:48.052Z,4.80
2017-05-09T03:28:48.702Z,4.66
2017-05-09T03:29:49.305Z,4.62
2017-05-09T03:30:49.905Z,4.63
2017-05-09T03:31:50.511Z,4.60
2017-05-09T03:32:51.107Z,4.60
2017-05-09T03:33:51.713Z,4.56
2017-05-09T03:34:52.314Z,4.50
2017-05-09T03:35:52.917Z,4.46
2017-05-09T03:36:53.520Z,4.45
2017-05-09T03:37:54.113Z,4.42
2017-05-09T03:38:54.721Z,4.39
2017-05-09T03:39:55.325Z,4.38
2017-05-09T03:40:55.920Z,4.38
2017-05-09T03:41:56.511Z,4.42
2017-05-09T03:42:57.119Z,4.35
2017-05-09T03:43:57.728Z,4.32
2017-05-09T03:44:58.336Z,4.38
2017-05-09T03:45:58.930Z,4.32
2017-05-09T03:46:59.532Z,4.38
2017-05-09T03:48:00.127Z,4.38
2017-05-09T03:49:00.726Z,4.31
2017-05-09T03:50:01.322Z,4.28
2017-05-09T03:51:01.916Z,4.31
2017-05-09T03:52:02.531Z,4.32
2017-05-09T03:53:03.134Z,4.34
2017-05-09T03:54:03.795Z,4.27
2017-05-09T03:55:04.392Z,4.32
2017-05-09T03:56:04.989Z,4.28
2017-05-09T03:57:05.580Z,4.20
2017-05-09T03:58:06.172Z,4.27
2017-05-09T03:59:06.769Z,4.34
2017-05-09T04:00:07.364Z,4.24
2017-05-09T04:01:07.958Z,4.20
2017-05-09T04:02:08.551Z,4.16
2017-05-09T04:03:09.156Z,4.16
2017-05-09T04:04:09.815Z,4.14
2017-05-09T04:05:10.412Z,4.18
2017-05-09T04:06:11.022Z,4.13
2017-05-09T04:07:11.626Z,4.09
2017-05-09T04:08:12.223Z,4.13
2017-05-09T04:09:12.840Z,4.08
2017-05-09T04:10:13.439Z,4.16
2017-05-09T04:11:14.036Z,4.05
2017-05-09T04:12:14.643Z,4.03
2017-05-09T04:13:15.238Z,4.05
2017-05-09T04:14:15.889Z,4.02
2017-05-09T04:15:16.505Z,4.02
2017-05-09T04:16:17.108Z,3.99
2017-05-09T04:17:17.706Z,4.09
2017-05-09T04:18:18.316Z,4.14
2017-05-09T04:19:18.963Z,4.09
2017-05-09T04:20:19.600Z,4.16
2017-05-09T04:21:20.176Z,4.13
2017-05-09T04:22:20.770Z,4.06
2017-05-09T04:23:21.372Z,4.14
2017-05-09T04:24:22.028Z,4.14
2017-05-09T04:25:22.641Z,4.23
2017-05-09T04:26:23.246Z,4.10
2017-05-09T04:27:23.834Z,4.17
2017-05-09T04:28:24.441Z,4.23
2017-05-09T04:29:25.096Z,4.23
2017-05-09T04:30:25.707Z,4.28
2017-05-09T04:31:26.299Z,4.20
2017-05-09T04:32:26.905Z,4.23
2017-05-09T04:33:27.510Z,4.31
2017-05-09T04:34:28.168Z,4.34
2017-05-09T04:35:28.766Z,4.56
2017-05-09T04:36:29.376Z,4.94
2017-05-09T04:37:29.989Z,5.42
2017-05-09T04:38:30.604Z,5.78
2017-05-09T04:39:31.218Z,5.99
2017-05-09T04:40:31.824Z,6.09
2017-05-09T04:41:32.427Z,6.63
2017-05-09T04:42:33.039Z,7.00
2017-05-09T04:43:33.641Z,7.42
2017-05-09T04:44:34.254Z,7.74
2017-05-09T04:45:34.855Z,7.94
2017-05-09T04:46:35.460Z,8.41
2017-05-09T04:47:36.077Z,8.68
2017-05-09T04:48:36.693Z,8.95
2017-05-09T04:49:37.342Z,9.33
2017-05-09T04:50:37.960Z,9.65
2017-05-09T04:51:38.561Z,9.68
2017-05-09T04:52:39.175Z,9.90
2017-05-09T04:53:39.818Z,10.20
2017-05-09T04:54:40.417Z,10.34
2017-05-09T04:55:41.041Z,10.31
2017-05-09T04:56:41.647Z,10.14
2017-05-09T04:57:42.248Z,9.98
2017-05-09T04:58:42.860Z,10.13
2017-05-09T04:59:43.524Z,10.37
2017-05-09T05:00:44.161Z,10.67
2017-05-09T05:01:44.738Z,10.76
2017-05-09T05:02:45.343Z,10.75
2017-05-09T05:03:45.961Z,10.49
2017-05-09T05:04:46.639Z,10.60
2017-05-09T05:05:47.260Z,10.76
2017-05-09T05:06:47.909Z,10.91
2017-05-09T05:07:48.505Z,11.27
2017-05-09T05:08:49.135Z,11.48
2017-05-09T05:09:49.815Z,11.48
2017-05-09T05:10:50.438Z,11.54
2017-05-09T05:11:51.058Z,11.51
2017-05-09T05:12:51.690Z,11.44
2017-05-09T05:13:52.327Z,11.80
2017-05-09T05:14:52.995Z,12.11
2017-05-09T05:15:53.622Z,12.29
2017-05-09T05:16:54.234Z,12.46
2017-05-09T05:17:54.864Z,12.50
2017-05-09T05:18:55.498Z,12.71
2017-05-09T05:19:56.179Z,12.86
2017-05-09T05:20:56.787Z,12.95
2017-05-09T05:21:57.407Z,12.65
2017-05-09T05:22:58.036Z,12.37
2017-05-09T05:23:58.658Z,11.87
2017-05-09T05:24:59.378Z,11.51
2017-05-09T05:25:59.988Z,11.19
2017-05-09T05:27:00.614Z,11.01
2017-05-09T05:28:01.226Z,11.18
2017-05-09T05:29:01.841Z,11.47
2017-05-09T05:30:02.460Z,11.69
2017-05-09T05:31:03.074Z,12.03
2017-05-09T05:32:03.688Z,11.87
2017-05-09T05:33:04.306Z,11.55
2017-05-09T05:34:04.927Z,11.33
2017-05-09T05:35:05.601Z,11.54
2017-05-09T05:36:06.224Z,11.76
2017-05-09T05:37:06.852Z,12.10
2017-05-09T05:38:07.478Z,12.44
2017-05-09T05:39:08.108Z,12.87
2017-05-09T05:40:08.782Z,13.22
2017-05-09T05:41:09.474Z,13.77
2017-05-09T05:42:10.077Z,14.15
2017-05-09T05:43:10.700Z,14.54
2017-05-09T05:44:11.327Z,14.54
2017-05-09T05:45:11.957Z,14.05
2017-05-09T05:46:12.567Z,13.36
2017-05-09T05:47:13.196Z,12.89
2017-05-09T05:48:13.808Z,13.05
2017-05-09T05:49:14.435Z,13.30
2017-05-09T05:50:15.057Z,13.46
2017-05-09T05:51:15.678Z,13.77
2017-05-09T05:52:16.299Z,14.19
2017-05-09T05:53:16.911Z,14.27
2017-05-09T05:54:17.536Z,13.97
2017-05-09T05:55:18.197Z,13.52
2017-05-09T05:56:18.817Z,13.31
2017-05-09T05:57:19.436Z,13.41
2017-05-09T05:58:20.052Z,13.79
2017-05-09T05:59:20.688Z,14.08
2017-05-09T06:00:21.297Z,14.11
2017-05-09T06:01:21.919Z,14.43
2017-05-09T06:02:22.536Z,14.94
2017-05-09T06:03:23.161Z,15.24
2017-05-09T06:04:23.784Z,15.43
2017-05-09T06:05:24.461Z,15.24
2017-05-09T06:06:25.089Z,15.17
2017-05-09T06:07:25.702Z,15.49
2017-05-09T06:08:26.328Z,15.94
2017-05-09T06:09:26.953Z,16.17
2017-05-09T06:10:27.570Z,16.41
2017-05-09T06:11:28.182Z,16.79
2017-05-09T06:12:28.809Z,16.97
2017-05-09T06:13:29.437Z,16.97
2017-05-09T06:14:30.066Z,17.00
2017-05-09T06:15:30.748Z,16.98
2017-05-09T06:16:31.388Z,17.15
2017-05-09T06:17:32.016Z,17.27
2017-05-09T06:18:32.645Z,17.39
2017-05-09T06:19:33.278Z,17.33
2017-05-09T06:20:34.142Z,16.96
2017-05-09T06:21:34.775Z,16.73
2017-05-09T06:22:35.417Z,16.83
2017-05-09T06:23:36.052Z,17.45
2017-05-09T06:24:36.687Z,17.86
2017-05-09T06:25:37.329Z,17.80
2017-05-09T06:26:37.955Z,17.93
2017-05-09T06:27:38.575Z,18.12
2017-05-09T06:28:39.194Z,18.30
2017-05-09T06:29:39.820Z,18.37
2017-05-09T06:30:40.489Z,18.40
2017-05-09T06:31:41.117Z,18.55
2017-05-09T06:32:41.741Z,18.65
2017-05-09T06:33:42.373Z,18.84
2017-05-09T06:34:42.992Z,18.77
2017-05-09T06:35:43.691Z,18.68
2017-05-09T06:36:44.337Z,18.44
2017-05-09T06:37:44.966Z,18.47
2017-05-09T06:38:45.600Z,18.34
2017-05-09T06:39:46.223Z,18.11
2017-05-09T06:40:46.904Z,17.90
2017-05-09T06:41:47.538Z,18.16
2017-05-09T06:42:48.167Z,18.25
2017-05-09T06:43:48.794Z,18.50
2017-05-09T06:44:49.424Z,18.89
2017-05-09T06:45:50.063Z,19.18
2017-05-09T06:46:50.701Z,19.12
2017-05-09T06:47:51.330Z,19.02
2017-05-09T06:48:51.960Z,18.99
2017-05-09T06:49:52.593Z,18.96
2017-05-09T06:50:53.224Z,19.15
2017-05-09T06:51:53.842Z,19.69
2017-05-09T06:52:54.479Z,19.85
2017-05-09T06:53:55.097Z,19.34
2017-05-09T06:54:55.730Z,19.14
2017-05-09T06:55:56.416Z,19.06
2017-05-09T06:56:57.045Z,18.55
2017-05-09T06:57:57.665Z,18.37
2017-05-09T06:58:58.296Z,18.55
2017-05-09T06:59:58.928Z,18.43
2017-05-09T07:00:59.607Z,18.41
2017-05-09T07:02:00.239Z,18.77
2017-05-09T07:03:00.873Z,18.78
2017-05-09T07:04:01.488Z,19.06
2017-05-09T07:05:02.119Z,19.14
2017-05-09T07:06:02.751Z,19.22
2017-05-09T07:07:03.382Z,19.39
2017-05-09T07:08:04.008Z,19.47
2017-05-09T07:09:04.639Z,19.51
2017-05-09T07:10:05.271Z,19.71
2017-05-09T07:11:05.956Z,19.81
2017-05-09T07:12:06.587Z,19.94
2017-05-09T07:13:07.206Z,19.92
2017-05-09T07:14:07.827Z,19.89
2017-05-09T07:15:08.458Z,19.89
2017-05-09T07:16:09.097Z,19.84
2017-05-09T07:17:09.727Z,19.48
2017-05-09T07:18:10.362Z,19.81
2017-05-09T07:19:10.984Z,19.81
2017-05-09T07:20:11.624Z,19.87
2017-05-09T07:21:12.336Z,19.73
2017-05-09T07:22:12.977Z,19.92
2017-05-09T07:23:13.640Z,20.16
2017-05-09T07:24:14.287Z,20.26
2017-05-09T07:25:14.968Z,20.52
2017-05-09T07:26:15.648Z,20.81
2017-05-09T07:27:16.279Z,20.62
2017-05-09T07:28:16.912Z,21.02
2017-05-09T07:29:17.532Z,21.21
2017-05-09T07:30:18.158Z,21.00
2017-05-09T07:31:18.777Z,20.87
2017-05-09T07:32:19.404Z,20.99
2017-05-09T07:33:20.037Z,21.12
2017-05-09T07:34:20.683Z,20.99
2017-05-09T07:35:21.339Z,20.87
2017-05-09T07:36:21.984Z,21.00
2017-05-09T07:37:22.616Z,21.17
2017-05-09T07:38:23.241Z,21.42
2017-05-09T07:39:23.890Z,21.62
2017-05-09T07:40:24.520Z,21.64
2017-05-09T07:41:25.149Z,21.30
2017-05-09T07:42:25.782Z,21.54
2017-05-09T07:43:26.404Z,21.79
2017-05-09T07:44:27.034Z,21.61
2017-05-09T07:45:27.662Z,21.49
2017-05-09T07:46:28.349Z,21.21
2017-05-09T07:47:28.979Z,21.15
2017-05-09T07:48:29.610Z,21.32
2017-05-09T07:49:30.234Z,21.30
2017-05-09T07:50:30.864Z,21.52
2017-05-09T07:51:31.542Z,21.39
2017-05-09T07:52:32.172Z,21.37
2017-05-09T07:53:32.789Z,21.64
2017-05-09T07:54:33.419Z,21.51
2017-05-09T07:55:34.052Z,21.40
2017-05-09T07:56:34.681Z,21.35
2017-05-09T07:57:35.304Z,20.99
2017-05-09T07:58:35.934Z,21.15
2017-05-09T07:59:36.561Z,21.52
2017-05-09T08:00:37.180Z,21.89
2017-05-09T08:01:37.810Z,21.95
2017-05-09T08:02:38.445Z,21.96
2017-05-09T08:03:39.079Z,21.89
2017-05-09T08:04:39.717Z,21.95
2017-05-09T08:05:40.336Z,21.67
2017-05-09T08:06:40.967Z,21.62
2017-05-09T08:07:41.598Z,21.62
2017-05-09T08:08:42.230Z,21.30
2017-05-09T08:09:42.848Z,21.65
2017-05-09T08:10:43.475Z,21.80
2017-05-09T08:11:44.110Z,21.43
2017-05-09T08:12:44.737Z,21.39
2017-05-09T08:13:45.366Z,21.60
2017-05-09T08:14:45.993Z,21.80
2017-05-09T08:15:46.616Z,21.52
2017-05-09T08:16:47.234Z,21.69
2017-05-09T08:17:47.864Z,21.95
2017-05-09T08:18:48.494Z,22.11
2017-05-09T08:19:49.118Z,22.02
2017-05-09T08:20:49.750Z,21.75
2017-05-09T08:21:50.373Z,21.62
2017-05-09T08:22:51.007Z,21.47
2017-05-09T08:23:51.624Z,21.28
2017-05-09T08:24:52.250Z,21.43
2017-05-09T08:25:52.875Z,21.39
2017-05-09T08:26:53.552Z,21.60
2017-05-09T08:27:54.180Z,21.64
2017-05-09T08:28:54.801Z,21.33
2017-05-09T08:29:55.432Z,21.51
2017-05-09T08:30:56.050Z,21.70
2017-05-09T08:31:56.721Z,21.77
2017-05-09T08:32:57.351Z,21.77
2017-05-09T08:33:57.973Z,21.91
2017-05-09T08:34:58.606Z,21.80
2017-05-09T08:35:59.226Z,21.54
2017-05-09T08:36:59.843Z,21.36
2017-05-09T08:38:00.461Z,21.49
2017-05-09T08:39:01.082Z,21.07
2017-05-09T08:40:01.701Z,20.78
2017-05-09T08:41:02.318Z,20.57
2017-05-09T08:42:02.939Z,20.43
2017-05-09T08:43:03.570Z,20.60
2017-05-09T08:44:04.198Z,20.81
2017-05-09T08:45:04.834Z,21.06
2017-05-09T08:46:05.461Z,21.32
2017-05-09T08:47:06.143Z,21.35
2017-05-09T08:48:06.777Z,21.12
2017-05-09T08:49:07.415Z,20.87
2017-05-09T08:50:08.030Z,20.60
2017-05-09T08:51:08.647Z,20.63
2017-05-09T08:52:09.322Z,20.67
2017-05-09T08:53:09.950Z,20.82
2017-05-09T08:54:10.577Z,20.78
2017-05-09T08:55:11.199Z,20.95
2017-05-09T08:56:11.834Z,21.20
2017-05-09T08:57:12.512Z,21.45
2017-05-09T08:58:13.140Z,21.30
2017-05-09T08:59:13.753Z,20.60
2017-05-09T09:00:14.370Z,19.74
2017-05-09T09:01:15.000Z,19.59
2017-05-09T09:02:15.716Z,19.67
2017-05-09T09:03:16.345Z,20.10
2017-05-09T09:04:16.965Z,20.42
2017-05-09T09:05:17.587Z,20.55
2017-05-09T09:06:18.219Z,20.77
2017-05-09T09:07:18.934Z,20.73
2017-05-09T09:08:19.533Z,20.87
2017-05-09T09:09:20.149Z,20.80
2017-05-09T09:10:20.771Z,21.05
2017-05-09T09:11:21.398Z,20.57
2017-05-09T09:12:22.031Z,20.70
2017-05-09T09:13:22.667Z,20.95
2017-05-09T09:14:23.297Z,20.95
2017-05-09T09:15:23.917Z,21.25
2017-05-09T09:16:24.536Z,21.06
2017-05-09T09:17:25.215Z,20.95
2017-05-09T09:18:25.848Z,20.92
2017-05-09T09:19:26.479Z,20.91
2017-05-09T09:20:27.102Z,20.92
2017-05-09T09:21:27.737Z,20.84
2017-05-09T09:22:28.401Z,20.91
2017-05-09T09:23:29.022Z,20.67
2017-05-09T09:24:29.654Z,20.39
2017-05-09T09:25:30.286Z,20.31
2017-05-09T09:26:30.916Z,20.60
2017-05-09T09:27:31.543Z,20.77
2017-05-09T09:28:32.169Z,20.70
2017-05-09T09:29:32.792Z,20.84
2017-05-09T09:30:33.427Z,20.70
2017-05-09T09:31:34.043Z,20.82
2017-05-09T09:32:34.679Z,20.99
2017-05-09T09:33:35.310Z,21.18
2017-05-09T09:34:35.936Z,20.87
2017-05-09T09:35:36.566Z,20.43
2017-05-09T09:36:37.195Z,20.31
2017-05-09T09:37:37.820Z,19.98
2017-05-09T09:38:38.442Z,20.09
2017-05-09T09:39:39.064Z,20.39
2017-05-09T09:40:39.682Z,19.94
2017-05-09T09:41:40.307Z,19.36
2017-05-09T09:42:40.926Z,19.25
2017-05-09T09:43:41.554Z,19.02
2017-05-09T09:44:42.184Z,19.19
2017-05-09T09:45:42.804Z,19.43
2017-05-09T09:46:43.435Z,19.30
2017-05-09T09:47:44.156Z,18.80
2017-05-09T09:48:44.793Z,19.04
2017-05-09T09:49:45.410Z,19.31
2017-05-09T09:50:46.261Z,19.66
2017-05-09T09:51:46.877Z,19.52
2017-05-09T09:52:47.556Z,19.12
2017-05-09T09:53:48.171Z,19.18
2017-05-09T09:54:48.800Z,19.18
2017-05-09T09:55:49.419Z,18.90
2017-05-09T09:56:50.049Z,18.50
2017-05-09T09:57:50.727Z,18.75
2017-05-09T09:58:51.354Z,19.02
2017-05-09T09:59:51.980Z,19.06
2017-05-09T10:00:52.596Z,18.84
2017-05-09T10:01:53.224Z,18.65
2017-05-09T10:02:53.851Z,18.77
2017-05-09T10:03:54.470Z,18.99
2017-05-09T10:04:55.104Z,18.78
2017-05-09T10:05:55.734Z,19.07
2017-05-09T10:06:56.354Z,19.30
2017-05-09T10:07:56.984Z,19.43
2017-05-09T10:08:57.610Z,19.59
2017-05-09T10:09:58.228Z,19.47
2017-05-09T10:10:58.861Z,19.33
2017-05-09T10:11:59.605Z,19.16
2017-05-09T10:13:00.283Z,18.84
2017-05-09T10:14:00.915Z,18.93
2017-05-09T10:15:01.535Z,18.90
2017-05-09T10:16:02.164Z,18.92
2017-05-09T10:17:02.792Z,19.15
2017-05-09T10:18:03.415Z,19.31
2017-05-09T10:19:04.032Z,19.36
2017-05-09T10:20:04.661Z,19.70
2017-05-09T10:21:05.279Z,19.98
2017-05-09T10:22:05.914Z,20.16
2017-05-09T10:23:06.542Z,20.03
2017-05-09T10:24:07.166Z,19.79
2017-05-09T10:25:07.786Z,20.17
2017-05-09T10:26:08.412Z,20.51
2017-05-09T10:27:09.040Z,20.52
2017-05-09T10:28:09.667Z,20.73
2017-05-09T10:29:10.285Z,20.67
2017-05-09T10:30:10.913Z,20.67
2017-05-09T10:31:11.544Z,20.69
2017-05-09T10:32:12.169Z,20.69
2017-05-09T10:33:12.840Z,20.77
2017-05-09T10:34:13.457Z,20.96
2017-05-09T10:35:14.080Z,21.15
2017-05-09T10:36:14.700Z,21.10
2017-05-09T10:37:15.330Z,21.07
2017-05-09T10:38:16.012Z,21.09
2017-05-09T10:39:16.639Z,21.21
2017-05-09T10:40:17.268Z,21.54
2017-05-09T10:41:18.097Z,21.10
2017-05-09T10:42:18.731Z,20.81
2017-05-09T10:43:19.414Z,20.87
2017-05-09T10:44:20.047Z,20.91
2017-05-09T10:45:20.669Z,21.00
2017-05-09T10:46:21.296Z,21.30
2017-05-09T10:47:21.925Z,21.47
2017-05-09T10:48:22.544Z,20.98
2017-05-09T10:49:23.179Z,21.00
2017-05-09T10:50:23.812Z,21.15
2017-05-09T10:51:24.445Z,21.28
2017-05-09T10:52:25.076Z,21.14
2017-05-09T10:53:25.754Z,21.36
2017-05-09T10:54:26.384Z,21.14
2017-05-09T10:55:27.003Z,20.81
2017-05-09T10:56:27.630Z,20.65
2017-05-09T10:57:28.263Z,20.43
2017-05-09T10:58:28.935Z,20.02
2017-05-09T10:59:29.554Z,19.81
2017-05-09T11:00:30.189Z,20.06
2017-05-09T11:01:30.813Z,20.22
2017-05-09T11:02:31.442Z,20.40
2017-05-09T11:03:32.137Z,19.91
2017-05-09T11:04:32.790Z,19.66
2017-05-09T11:05:33.404Z,19.40
2017-05-09T11:06:34.022Z,19.55
2017-05-09T11:07:34.652Z,19.76
2017-05-09T11:08:35.288Z,19.79
2017-05-09T11:09:35.926Z,19.84
2017-05-09T11:10:36.555Z,19.96
2017-05-09T11:11:37.182Z,20.36
2017-05-09T11:12:37.805Z,20.75
2017-05-09T11:13:38.478Z,20.78
2017-05-09T11:14:39.106Z,21.05
2017-05-09T11:15:39.758Z,21.17
2017-05-09T11:16:40.376Z,21.00
2017-05-09T11:17:41.007Z,20.28
2017-05-09T11:18:41.735Z,19.95
2017-05-09T11:19:42.363Z,19.87
2017-05-09T11:20:42.986Z,19.98
2017-05-09T11:21:43.608Z,19.95
2017-05-09T11:22:44.239Z,19.47
2017-05-09T11:23:44.858Z,19.34
2017-05-09T11:24:45.486Z,19.11
2017-05-09T11:25:46.114Z,18.75
2017-05-09T11:26:46.745Z,18.62
2017-05-09T11:27:47.367Z,18.35
2017-05-09T11:28:47.994Z,18.11
2017-05-09T11:29:48.619Z,18.14
2017-05-09T11:30:49.247Z,18.38
2017-05-09T11:31:49.874Z,18.68
2017-05-09T11:32:50.506Z,19.00
2017-05-09T11:33:51.171Z,19.41
2017-05-09T11:34:51.800Z,19.61
2017-05-09T11:35:52.436Z,19.70
2017-05-09T11:36:53.047Z,19.85
2017-05-09T11:37:53.667Z,20.07
2017-05-09T11:38:54.296Z,20.40
2017-05-09T11:39:54.914Z,20.99
2017-05-09T11:40:55.547Z,21.57
2017-05-09T11:41:56.177Z,21.91
2017-05-09T11:42:57.028Z,22.03
2017-05-09T11:43:57.701Z,21.64
2017-05-09T11:44:58.324Z,20.81
2017-05-09T11:45:58.946Z,20.80
2017-05-09T11:46:59.572Z,20.65
2017-05-09T11:48:00.186Z,20.35
2017-05-09T11:49:00.859Z,20.31
2017-05-09T11:50:01.482Z,20.28
2017-05-09T11:51:02.097Z,20.48
2017-05-09T11:52:02.711Z,20.35
2017-05-09T11:53:03.333Z,20.06
2017-05-09T11:54:03.998Z,20.13
2017-05-09T11:55:04.618Z,20.22
2017-05-09T11:56:05.233Z,20.40
2017-05-09T11:57:05.860Z,20.55
2017-05-09T11:58:06.490Z,20.52
2017-05-09T11:59:07.116Z,20.31
2017-05-09T12:00:07.739Z,20.73
2017-05-09T12:01:08.362Z,20.78
2017-05-09T12:02:08.978Z,21.28
2017-05-09T12:03:09.589Z,21.72
2017-05-09T12:04:10.267Z,21.83
2017-05-09T12:05:10.897Z,22.05
2017-05-09T12:06:11.524Z,22.11
2017-05-09T12:07:12.147Z,22.62
2017-05-09T12:08:12.765Z,22.97
2017-05-09T12:09:13.446Z,23.31
2017-05-09T12:10:14.079Z,23.54
2017-05-09T12:11:14.706Z,23.80
2017-05-09T12:12:15.335Z,23.58
2017-05-09T12:13:15.964Z,23.25
2017-05-09T12:14:16.635Z,23.35
2017-05-09T12:15:17.268Z,23.53
2017-05-09T12:16:17.906Z,23.96
2017-05-09T12:17:18.534Z,24.06
2017-05-09T12:18:19.163Z,23.95
2017-05-09T12:19:19.791Z,23.77
2017-05-09T12:20:20.428Z,23.39
2017-05-09T12:21:21.060Z,23.13
2017-05-09T12:22:21.678Z,22.87
2017-05-09T12:23:22.309Z,22.55
2017-05-09T12:24:22.929Z,22.58
2017-05-09T12:25:23.555Z,22.54
2017-05-09T12:26:24.186Z,22.97
2017-05-09T12:27:24.813Z,23.41
2017-05-09T12:28:25.437Z,23.28
2017-05-09T12:29:26.058Z,22.66
2017-05-09T12:30:26.693Z,21.83
2017-05-09T12:31:27.307Z,21.15
2017-05-09T12:32:27.922Z,21.17
2017-05-09T12:33:28.555Z,21.30
2017-05-09T12:34:29.188Z,21.67
2017-05-09T12:35:29.822Z,21.92
2017-05-09T12:36:30.452Z,22.42
2017-05-09T12:37:31.080Z,22.69
2017-05-09T12:38:31.706Z,23.05
2017-05-09T12:39:32.335Z,22.94
2017-05-09T12:40:32.960Z,22.85
2017-05-09T12:41:33.589Z,23.32
2017-05-09T12:42:34.219Z,23.77
2017-05-09T12:43:34.837Z,24.06
2017-05-09T12:44:35.500Z,23.98
2017-05-09T12:45:36.118Z,23.58
2017-05-09T12:46:36.751Z,23.00
2017-05-09T12:47:37.377Z,22.44
2017-05-09T12:48:38.006Z,21.89
2017-05-09T12:49:38.682Z,21.62
2017-05-09T12:50:39.308Z,21.91
2017-05-09T12:51:39.939Z,22.60
2017-05-09T12:52:40.767Z,22.81
2017-05-09T12:53:41.397Z,22.93
2017-05-09T12:54:42.077Z,22.75
2017-05-09T12:55:42.694Z,22.95
2017-05-09T12:56:43.333Z,23.27
2017-05-09T12:57:43.954Z,23.53
2017-05-09T12:58:44.580Z,23.98
2017-05-09T12:59:45.211Z,24.46
2017-05-09T13:00:45.833Z,24.70
2017-05-09T13:01:46.457Z,24.57
2017-05-09T13:02:47.076Z,24.08
2017-05-09T13:03:47.707Z,23.59
2017-05-09T13:04:48.338Z,23.21
2017-05-09T13:05:48.975Z,22.68
2017-05-09T13:06:49.585Z,22.54
2017-05-09T13:07:50.208Z,22.91
2017-05-09T13:08:50.836Z,22.51
2017-05-09T13:09:51.502Z,22.40
2017-05-09T13:10:52.122Z,22.47